sensor_id;sensor_type;location;lat;lon;timestamp;temperature;humidity
72814;DHT22;60945;48.516;-2.768;2023-07-22T00:00:47;13.90;78.20
72814;DHT22;60945;48.516;-2.768;2023-07-22T00:03:13;13.90;78.20
72814;DHT22;60945;48.516;-2.768;2023-07-22T00:05:40;13.90;78.50
72814;DHT22;60945;48.516;-2.768;2023-07-22T00:08:05;13.90;78.40
72814;DHT22;60945;48.516;-2.768;2023-07-22T00:10:31;13.90;78.40
72814;DHT22;60945;48.516;-2.768;2023-07-22T00:12:57;13.80;78.50
72814;DHT22;60945;48.516;-2.768;2023-07-22T00:15:22;13.80;79.00
72814;DHT22;60945;48.516;-2.768;2023-07-22T00:17:49;13.80;78.80
72814;DHT22;60945;48.516;-2.768;2023-07-22T00:20:16;13.80;78.60
72814;DHT22;60945;48.516;-2.768;2023-07-22T00:22:42;13.80;78.20
72814;DHT22;60945;48.516;-2.768;2023-07-22T00:25:10;13.80;78.30
72814;DHT22;60945;48.516;-2.768;2023-07-22T00:27:37;13.80;78.80
72814;DHT22;60945;48.516;-2.768;2023-07-22T00:30:05;13.80;78.60
72814;DHT22;60945;48.516;-2.768;2023-07-22T00:32:31;13.80;78.30
72814;DHT22;60945;48.516;-2.768;2023-07-22T00:34:57;13.80;78.60
72814;DHT22;60945;48.516;-2.768;2023-07-22T00:37:22;13.80;78.60
72814;DHT22;60945;48.516;-2.768;2023-07-22T00:39:48;13.80;78.50
72814;DHT22;60945;48.516;-2.768;2023-07-22T00:42:14;13.80;78.60
72814;DHT22;60945;48.516;-2.768;2023-07-22T00:44:39;13.80;78.80
72814;DHT22;60945;48.516;-2.768;2023-07-22T00:47:05;13.80;78.40
72814;DHT22;60945;48.516;-2.768;2023-07-22T00:49:31;13.80;78.40
72814;DHT22;60945;48.516;-2.768;2023-07-22T00:52:01;13.80;78.80
72814;DHT22;60945;48.516;-2.768;2023-07-22T00:54:30;13.70;78.60
72814;DHT22;60945;48.516;-2.768;2023-07-22T00:56:57;13.70;78.30
72814;DHT22;60945;48.516;-2.768;2023-07-22T00:59:23;13.70;78.40
72814;DHT22;60945;48.516;-2.768;2023-07-22T01:01:49;13.70;78.60
72814;DHT22;60945;48.516;-2.768;2023-07-22T01:04:16;13.70;78.50
72814;DHT22;60945;48.516;-2.768;2023-07-22T01:06:44;13.60;78.60
72814;DHT22;60945;48.516;-2.768;2023-07-22T01:09:10;13.60;78.80
72814;DHT22;60945;48.516;-2.768;2023-07-22T01:11:39;13.60;79.00
72814;DHT22;60945;48.516;-2.768;2023-07-22T01:14:04;13.50;78.90
72814;DHT22;60945;48.516;-2.768;2023-07-22T01:16:30;13.50;79.30
72814;DHT22;60945;48.516;-2.768;2023-07-22T01:18:56;13.50;79.00
72814;DHT22;60945;48.516;-2.768;2023-07-22T01:21:23;13.40;78.80
72814;DHT22;60945;48.516;-2.768;2023-07-22T01:23:49;13.40;78.60
72814;DHT22;60945;48.516;-2.768;2023-07-22T01:26:15;13.40;79.10
72814;DHT22;60945;48.516;-2.768;2023-07-22T01:28:41;13.40;78.60
72814;DHT22;60945;48.516;-2.768;2023-07-22T01:31:07;13.30;78.80
72814;DHT22;60945;48.516;-2.768;2023-07-22T01:33:32;13.30;78.80
72814;DHT22;60945;48.516;-2.768;2023-07-22T01:35:59;13.40;78.80
72814;DHT22;60945;48.516;-2.768;2023-07-22T01:38:25;13.40;78.60
72814;DHT22;60945;48.516;-2.768;2023-07-22T01:40:51;13.40;78.40
72814;DHT22;60945;48.516;-2.768;2023-07-22T01:43:16;13.40;78.50
72814;DHT22;60945;48.516;-2.768;2023-07-22T01:45:42;13.50;78.40
72814;DHT22;60945;48.516;-2.768;2023-07-22T01:48:08;13.60;78.00
72814;DHT22;60945;48.516;-2.768;2023-07-22T01:50:34;13.70;77.40
72814;DHT22;60945;48.516;-2.768;2023-07-22T01:52:59;13.60;77.30
72814;DHT22;60945;48.516;-2.768;2023-07-22T01:55:25;13.70;77.20
72814;DHT22;60945;48.516;-2.768;2023-07-22T01:57:51;13.70;77.20
72814;DHT22;60945;48.516;-2.768;2023-07-22T02:00:17;13.80;77.00
72814;DHT22;60945;48.516;-2.768;2023-07-22T02:02:42;13.80;77.00
72814;DHT22;60945;48.516;-2.768;2023-07-22T02:05:09;13.80;76.70
72814;DHT22;60945;48.516;-2.768;2023-07-22T02:07:38;13.90;76.70
72814;DHT22;60945;48.516;-2.768;2023-07-22T02:10:07;13.90;76.10
72814;DHT22;60945;48.516;-2.768;2023-07-22T02:12:35;13.90;76.00
72814;DHT22;60945;48.516;-2.768;2023-07-22T02:15:00;13.90;76.30
72814;DHT22;60945;48.516;-2.768;2023-07-22T02:17:27;13.90;76.30
72814;DHT22;60945;48.516;-2.768;2023-07-22T02:19:53;14.00;76.40
72814;DHT22;60945;48.516;-2.768;2023-07-22T02:22:18;14.00;76.40
72814;DHT22;60945;48.516;-2.768;2023-07-22T02:24:44;13.90;76.80
72814;DHT22;60945;48.516;-2.768;2023-07-22T02:27:10;13.90;77.30
72814;DHT22;60945;48.516;-2.768;2023-07-22T02:29:35;14.00;77.40
72814;DHT22;60945;48.516;-2.768;2023-07-22T02:32:02;13.90;77.20
72814;DHT22;60945;48.516;-2.768;2023-07-22T02:34:28;14.00;76.60
72814;DHT22;60945;48.516;-2.768;2023-07-22T02:36:54;14.00;77.10
72814;DHT22;60945;48.516;-2.768;2023-07-22T02:39:20;14.00;77.20
72814;DHT22;60945;48.516;-2.768;2023-07-22T02:41:46;14.00;76.90
72814;DHT22;60945;48.516;-2.768;2023-07-22T02:44:11;14.10;76.60
72814;DHT22;60945;48.516;-2.768;2023-07-22T02:46:38;14.10;76.40
72814;DHT22;60945;48.516;-2.768;2023-07-22T02:49:03;14.10;76.80
72814;DHT22;60945;48.516;-2.768;2023-07-22T02:51:29;14.00;76.80
72814;DHT22;60945;48.516;-2.768;2023-07-22T02:53:54;14.10;76.50
72814;DHT22;60945;48.516;-2.768;2023-07-22T02:56:20;14.20;76.70
72814;DHT22;60945;48.516;-2.768;2023-07-22T02:58:46;14.20;76.10
72814;DHT22;60945;48.516;-2.768;2023-07-22T03:01:11;14.30;75.70
72814;DHT22;60945;48.516;-2.768;2023-07-22T03:03:37;14.30;75.80
72814;DHT22;60945;48.516;-2.768;2023-07-22T03:06:05;14.20;74.70
72814;DHT22;60945;48.516;-2.768;2023-07-22T03:08:31;14.10;75.30
72814;DHT22;60945;48.516;-2.768;2023-07-22T03:10:56;14.10;74.90
72814;DHT22;60945;48.516;-2.768;2023-07-22T03:13:22;14.10;75.10
72814;DHT22;60945;48.516;-2.768;2023-07-22T03:15:48;14.10;74.80
72814;DHT22;60945;48.516;-2.768;2023-07-22T03:18:13;14.10;74.30
72814;DHT22;60945;48.516;-2.768;2023-07-22T03:20:39;14.10;74.80
72814;DHT22;60945;48.516;-2.768;2023-07-22T03:23:05;14.00;74.60
72814;DHT22;60945;48.516;-2.768;2023-07-22T03:25:32;13.90;74.60
72814;DHT22;60945;48.516;-2.768;2023-07-22T03:28:04;14.00;74.60
72814;DHT22;60945;48.516;-2.768;2023-07-22T03:30:30;14.00;74.10
72814;DHT22;60945;48.516;-2.768;2023-07-22T03:32:56;14.00;74.30
72814;DHT22;60945;48.516;-2.768;2023-07-22T03:35:21;13.80;74.90
72814;DHT22;60945;48.516;-2.768;2023-07-22T03:37:47;13.80;75.50
72814;DHT22;60945;48.516;-2.768;2023-07-22T03:40:13;13.80;75.60
72814;DHT22;60945;48.516;-2.768;2023-07-22T03:42:56;13.80;75.80
72814;DHT22;60945;48.516;-2.768;2023-07-22T03:45:23;13.80;76.30
72814;DHT22;60945;48.516;-2.768;2023-07-22T03:47:55;13.80;76.40
72814;DHT22;60945;48.516;-2.768;2023-07-22T03:50:21;13.90;76.80
72814;DHT22;60945;48.516;-2.768;2023-07-22T03:52:46;14.00;76.80
72814;DHT22;60945;48.516;-2.768;2023-07-22T03:55:12;14.00;76.70
72814;DHT22;60945;48.516;-2.768;2023-07-22T03:57:38;14.00;77.00
72814;DHT22;60945;48.516;-2.768;2023-07-22T04:00:04;14.00;77.10
72814;DHT22;60945;48.516;-2.768;2023-07-22T04:02:31;14.10;77.20
72814;DHT22;60945;48.516;-2.768;2023-07-22T04:04:57;14.10;77.10
72814;DHT22;60945;48.516;-2.768;2023-07-22T04:07:22;14.10;77.00
72814;DHT22;60945;48.516;-2.768;2023-07-22T04:09:49;14.10;77.20
72814;DHT22;60945;48.516;-2.768;2023-07-22T04:12:15;14.10;77.70
72814;DHT22;60945;48.516;-2.768;2023-07-22T04:14:40;14.20;77.40
72814;DHT22;60945;48.516;-2.768;2023-07-22T04:17:06;14.20;77.30
72814;DHT22;60945;48.516;-2.768;2023-07-22T04:19:32;14.00;78.10
72814;DHT22;60945;48.516;-2.768;2023-07-22T04:21:58;14.00;78.20
72814;DHT22;60945;48.516;-2.768;2023-07-22T04:24:24;14.00;78.30
72814;DHT22;60945;48.516;-2.768;2023-07-22T04:26:51;14.20;77.60
72814;DHT22;60945;48.516;-2.768;2023-07-22T04:29:16;14.10;77.40
72814;DHT22;60945;48.516;-2.768;2023-07-22T04:31:42;14.10;77.60
72814;DHT22;60945;48.516;-2.768;2023-07-22T04:34:08;14.10;78.10
72814;DHT22;60945;48.516;-2.768;2023-07-22T04:36:34;14.10;77.60
72814;DHT22;60945;48.516;-2.768;2023-07-22T04:39:00;14.10;77.80
72814;DHT22;60945;48.516;-2.768;2023-07-22T04:41:26;14.00;78.20
72814;DHT22;60945;48.516;-2.768;2023-07-22T04:43:51;14.00;78.00
72814;DHT22;60945;48.516;-2.768;2023-07-22T04:46:17;13.90;78.30
72814;DHT22;60945;48.516;-2.768;2023-07-22T04:48:43;14.10;78.40
72814;DHT22;60945;48.516;-2.768;2023-07-22T04:51:09;14.20;77.90
72814;DHT22;60945;48.516;-2.768;2023-07-22T04:53:34;14.30;77.50
72814;DHT22;60945;48.516;-2.768;2023-07-22T04:56:00;14.30;77.30
72814;DHT22;60945;48.516;-2.768;2023-07-22T04:58:27;14.10;77.50
72814;DHT22;60945;48.516;-2.768;2023-07-22T05:00:52;14.10;77.70
72814;DHT22;60945;48.516;-2.768;2023-07-22T05:03:18;14.20;77.20
72814;DHT22;60945;48.516;-2.768;2023-07-22T05:05:44;14.20;76.80
72814;DHT22;60945;48.516;-2.768;2023-07-22T05:08:10;14.20;77.50
72814;DHT22;60945;48.516;-2.768;2023-07-22T05:10:37;14.40;77.40
72814;DHT22;60945;48.516;-2.768;2023-07-22T05:13:03;14.10;77.60
72814;DHT22;60945;48.516;-2.768;2023-07-22T05:15:29;14.20;77.00
72814;DHT22;60945;48.516;-2.768;2023-07-22T05:17:54;14.40;76.80
72814;DHT22;60945;48.516;-2.768;2023-07-22T05:20:20;14.50;76.00
72814;DHT22;60945;48.516;-2.768;2023-07-22T05:22:47;14.50;76.10
72814;DHT22;60945;48.516;-2.768;2023-07-22T05:25:13;14.60;76.30
72814;DHT22;60945;48.516;-2.768;2023-07-22T05:27:39;14.70;75.60
72814;DHT22;60945;48.516;-2.768;2023-07-22T05:30:06;14.80;75.80
72814;DHT22;60945;48.516;-2.768;2023-07-22T05:32:32;14.80;75.50
72814;DHT22;60945;48.516;-2.768;2023-07-22T05:34:57;14.90;74.90
72814;DHT22;60945;48.516;-2.768;2023-07-22T05:37:24;14.90;75.00
72814;DHT22;60945;48.516;-2.768;2023-07-22T05:39:50;15.10;74.90
72814;DHT22;60945;48.516;-2.768;2023-07-22T05:42:17;15.10;75.00
72814;DHT22;60945;48.516;-2.768;2023-07-22T05:44:42;15.20;74.60
72814;DHT22;60945;48.516;-2.768;2023-07-22T05:47:08;15.10;74.80
72814;DHT22;60945;48.516;-2.768;2023-07-22T05:49:34;15.10;74.60
72814;DHT22;60945;48.516;-2.768;2023-07-22T05:52:00;14.90;76.10
72814;DHT22;60945;48.516;-2.768;2023-07-22T05:54:25;15.00;75.80
72814;DHT22;60945;48.516;-2.768;2023-07-22T05:56:51;15.10;74.90
72814;DHT22;60945;48.516;-2.768;2023-07-22T05:59:17;15.30;74.40
72814;DHT22;60945;48.516;-2.768;2023-07-22T06:01:43;15.30;74.30
72814;DHT22;60945;48.516;-2.768;2023-07-22T06:04:08;15.50;73.80
72814;DHT22;60945;48.516;-2.768;2023-07-22T06:06:35;15.60;73.10
72814;DHT22;60945;48.516;-2.768;2023-07-22T06:09:00;15.60;73.50
72814;DHT22;60945;48.516;-2.768;2023-07-22T06:11:26;15.70;72.90
72814;DHT22;60945;48.516;-2.768;2023-07-22T06:13:52;15.20;74.90
72814;DHT22;60945;48.516;-2.768;2023-07-22T06:16:17;15.10;75.80
72814;DHT22;60945;48.516;-2.768;2023-07-22T06:18:43;15.40;74.60
72814;DHT22;60945;48.516;-2.768;2023-07-22T06:21:08;15.30;75.10
72814;DHT22;60945;48.516;-2.768;2023-07-22T06:23:34;15.30;75.00
72814;DHT22;60945;48.516;-2.768;2023-07-22T06:26:00;15.20;76.00
72814;DHT22;60945;48.516;-2.768;2023-07-22T06:28:25;15.20;75.70
72814;DHT22;60945;48.516;-2.768;2023-07-22T06:30:51;15.10;76.20
72814;DHT22;60945;48.516;-2.768;2023-07-22T06:33:16;15.20;76.40
72814;DHT22;60945;48.516;-2.768;2023-07-22T06:35:42;15.40;75.80
72814;DHT22;60945;48.516;-2.768;2023-07-22T06:38:08;15.40;76.20
72814;DHT22;60945;48.516;-2.768;2023-07-22T06:40:33;15.60;75.10
72814;DHT22;60945;48.516;-2.768;2023-07-22T06:42:59;15.90;74.70
72814;DHT22;60945;48.516;-2.768;2023-07-22T06:45:25;16.20;73.40
72814;DHT22;60945;48.516;-2.768;2023-07-22T06:47:50;16.40;72.80
72814;DHT22;60945;48.516;-2.768;2023-07-22T06:50:16;16.50;72.80
72814;DHT22;60945;48.516;-2.768;2023-07-22T06:52:41;16.10;74.00
72814;DHT22;60945;48.516;-2.768;2023-07-22T06:55:07;16.30;74.80
72814;DHT22;60945;48.516;-2.768;2023-07-22T06:57:33;16.40;74.70
72814;DHT22;60945;48.516;-2.768;2023-07-22T06:59:59;16.20;74.60
72814;DHT22;60945;48.516;-2.768;2023-07-22T07:02:25;16.30;75.50
72814;DHT22;60945;48.516;-2.768;2023-07-22T07:04:51;16.50;74.60
72814;DHT22;60945;48.516;-2.768;2023-07-22T07:07:16;16.90;73.50
72814;DHT22;60945;48.516;-2.768;2023-07-22T07:09:42;16.70;73.70
72814;DHT22;60945;48.516;-2.768;2023-07-22T07:12:08;17.10;72.70
72814;DHT22;60945;48.516;-2.768;2023-07-22T07:14:34;17.60;71.00
72814;DHT22;60945;48.516;-2.768;2023-07-22T07:17:02;17.60;70.80
72814;DHT22;60945;48.516;-2.768;2023-07-22T07:19:28;17.60;70.20
72814;DHT22;60945;48.516;-2.768;2023-07-22T07:21:54;17.60;69.90
72814;DHT22;60945;48.516;-2.768;2023-07-22T07:24:19;17.60;69.10
72814;DHT22;60945;48.516;-2.768;2023-07-22T07:26:45;17.00;71.30
72814;DHT22;60945;48.516;-2.768;2023-07-22T07:29:11;16.90;71.60
72814;DHT22;60945;48.516;-2.768;2023-07-22T07:31:37;16.90;72.20
72814;DHT22;60945;48.516;-2.768;2023-07-22T07:34:03;17.30;71.80
72814;DHT22;60945;48.516;-2.768;2023-07-22T07:36:29;17.70;69.20
72814;DHT22;60945;48.516;-2.768;2023-07-22T07:38:55;17.90;68.60
72814;DHT22;60945;48.516;-2.768;2023-07-22T07:41:21;17.50;68.70
72814;DHT22;60945;48.516;-2.768;2023-07-22T07:43:47;17.90;68.40
72814;DHT22;60945;48.516;-2.768;2023-07-22T07:46:30;17.90;67.60
72814;DHT22;60945;48.516;-2.768;2023-07-22T07:48:57;18.30;66.90
72814;DHT22;60945;48.516;-2.768;2023-07-22T07:51:25;18.20;65.80
72814;DHT22;60945;48.516;-2.768;2023-07-22T07:53:52;18.00;65.90
72814;DHT22;60945;48.516;-2.768;2023-07-22T07:56:19;18.20;66.30
72814;DHT22;60945;48.516;-2.768;2023-07-22T07:58:46;18.80;63.60
72814;DHT22;60945;48.516;-2.768;2023-07-22T08:01:12;18.90;63.50
72814;DHT22;60945;48.516;-2.768;2023-07-22T08:03:40;18.80;63.10
72814;DHT22;60945;48.516;-2.768;2023-07-22T08:06:07;18.40;64.80
72814;DHT22;60945;48.516;-2.768;2023-07-22T08:08:33;18.10;65.20
72814;DHT22;60945;48.516;-2.768;2023-07-22T08:11:07;18.20;65.30
72814;DHT22;60945;48.516;-2.768;2023-07-22T08:13:33;18.30;64.80
72814;DHT22;60945;48.516;-2.768;2023-07-22T08:16:08;18.40;65.30
72814;DHT22;60945;48.516;-2.768;2023-07-22T08:18:34;19.10;62.80
72814;DHT22;60945;48.516;-2.768;2023-07-22T08:21:05;18.90;62.60
72814;DHT22;60945;48.516;-2.768;2023-07-22T08:23:33;19.10;63.40
72814;DHT22;60945;48.516;-2.768;2023-07-22T08:25:58;19.50;61.50
72814;DHT22;60945;48.516;-2.768;2023-07-22T08:28:24;20.00;59.10
72814;DHT22;60945;48.516;-2.768;2023-07-22T08:30:50;20.10;59.90
72814;DHT22;60945;48.516;-2.768;2023-07-22T08:33:19;20.30;58.80
72814;DHT22;60945;48.516;-2.768;2023-07-22T08:35:44;19.90;59.20
72814;DHT22;60945;48.516;-2.768;2023-07-22T08:38:14;20.40;57.30
72814;DHT22;60945;48.516;-2.768;2023-07-22T08:40:40;20.40;58.60
72814;DHT22;60945;48.516;-2.768;2023-07-22T08:43:09;20.10;58.60
72814;DHT22;60945;48.516;-2.768;2023-07-22T08:45:36;20.30;57.70
72814;DHT22;60945;48.516;-2.768;2023-07-22T08:48:04;20.80;57.50
72814;DHT22;60945;48.516;-2.768;2023-07-22T08:50:45;21.20;55.90
72814;DHT22;60945;48.516;-2.768;2023-07-22T08:53:12;21.40;55.10
72814;DHT22;60945;48.516;-2.768;2023-07-22T08:55:38;21.20;55.30
72814;DHT22;60945;48.516;-2.768;2023-07-22T08:58:08;20.90;55.20
72814;DHT22;60945;48.516;-2.768;2023-07-22T09:00:35;20.50;56.80
72814;DHT22;60945;48.516;-2.768;2023-07-22T09:03:01;21.10;54.50
72814;DHT22;60945;48.516;-2.768;2023-07-22T09:05:28;21.10;54.80
72814;DHT22;60945;48.516;-2.768;2023-07-22T09:07:55;21.50;53.30
72814;DHT22;60945;48.516;-2.768;2023-07-22T09:10:23;21.30;52.60
72814;DHT22;60945;48.516;-2.768;2023-07-22T09:12:51;20.20;55.30
72814;DHT22;60945;48.516;-2.768;2023-07-22T09:15:16;20.40;55.70
72814;DHT22;60945;48.516;-2.768;2023-07-22T09:17:44;21.20;53.90
72814;DHT22;60945;48.516;-2.768;2023-07-22T09:20:13;21.80;52.00
72814;DHT22;60945;48.516;-2.768;2023-07-22T09:22:50;21.60;52.80
72814;DHT22;60945;48.516;-2.768;2023-07-22T09:25:21;21.80;53.20
72814;DHT22;60945;48.516;-2.768;2023-07-22T09:27:53;21.30;53.10
72814;DHT22;60945;48.516;-2.768;2023-07-22T09:30:21;21.50;52.70
72814;DHT22;60945;48.516;-2.768;2023-07-22T09:32:47;20.80;53.80
72814;DHT22;60945;48.516;-2.768;2023-07-22T09:35:13;21.70;52.20
72814;DHT22;60945;48.516;-2.768;2023-07-22T09:37:39;22.00;50.90
72814;DHT22;60945;48.516;-2.768;2023-07-22T09:40:33;23.00;48.40
72814;DHT22;60945;48.516;-2.768;2023-07-22T09:43:01;22.50;48.90
72814;DHT22;60945;48.516;-2.768;2023-07-22T09:45:30;22.40;49.60
72814;DHT22;60945;48.516;-2.768;2023-07-22T09:47:56;22.40;49.20
72814;DHT22;60945;48.516;-2.768;2023-07-22T09:50:24;22.90;47.80
72814;DHT22;60945;48.516;-2.768;2023-07-22T09:52:54;23.70;46.20
72814;DHT22;60945;48.516;-2.768;2023-07-22T09:55:22;24.00;45.70
72814;DHT22;60945;48.516;-2.768;2023-07-22T09:57:51;22.80;47.30
72814;DHT22;60945;48.516;-2.768;2023-07-22T10:00:18;22.10;49.20
72814;DHT22;60945;48.516;-2.768;2023-07-22T10:02:47;22.80;47.90
72814;DHT22;60945;48.516;-2.768;2023-07-22T10:05:17;23.70;45.80
72814;DHT22;60945;48.516;-2.768;2023-07-22T10:07:49;24.50;44.90
72814;DHT22;60945;48.516;-2.768;2023-07-22T10:10:17;24.30;45.50
72814;DHT22;60945;48.516;-2.768;2023-07-22T10:12:43;24.60;45.30
72814;DHT22;60945;48.516;-2.768;2023-07-22T10:15:11;24.90;44.00
72814;DHT22;60945;48.516;-2.768;2023-07-22T10:17:38;26.10;41.40
72814;DHT22;60945;48.516;-2.768;2023-07-22T10:20:04;25.20;42.40
72814;DHT22;60945;48.516;-2.768;2023-07-22T10:22:37;25.70;40.70
72814;DHT22;60945;48.516;-2.768;2023-07-22T10:25:05;25.50;40.90
72814;DHT22;60945;48.516;-2.768;2023-07-22T10:27:32;26.70;39.20
72814;DHT22;60945;48.516;-2.768;2023-07-22T10:29:59;26.40;39.80
72814;DHT22;60945;48.516;-2.768;2023-07-22T10:32:24;28.90;37.80
72814;DHT22;60945;48.516;-2.768;2023-07-22T10:34:53;32.30;31.70
72814;DHT22;60945;48.516;-2.768;2023-07-22T10:37:18;32.60;31.00
72814;DHT22;60945;48.516;-2.768;2023-07-22T10:39:44;35.10;28.50
72814;DHT22;60945;48.516;-2.768;2023-07-22T10:42:24;34.90;28.40
72814;DHT22;60945;48.516;-2.768;2023-07-22T10:44:49;30.10;33.30
72814;DHT22;60945;48.516;-2.768;2023-07-22T10:47:31;27.80;37.20
72814;DHT22;60945;48.516;-2.768;2023-07-22T10:50:05;25.40;41.30
72814;DHT22;60945;48.516;-2.768;2023-07-22T10:52:43;25.60;42.00
72814;DHT22;60945;48.516;-2.768;2023-07-22T10:55:17;27.00;38.80
72814;DHT22;60945;48.516;-2.768;2023-07-22T10:57:50;25.10;41.40
72814;DHT22;60945;48.516;-2.768;2023-07-22T11:00:21;27.30;38.80
72814;DHT22;60945;48.516;-2.768;2023-07-22T11:05:55;26.30;40.20
72814;DHT22;60945;48.516;-2.768;2023-07-22T11:08:38;31.30;33.20
72814;DHT22;60945;48.516;-2.768;2023-07-22T11:11:04;35.00;28.50
72814;DHT22;60945;48.516;-2.768;2023-07-22T11:13:37;36.30;26.50
72814;DHT22;60945;48.516;-2.768;2023-07-22T11:16:02;35.00;27.20
72814;DHT22;60945;48.516;-2.768;2023-07-22T11:18:41;31.70;30.40
72814;DHT22;60945;48.516;-2.768;2023-07-22T11:21:11;29.10;34.70
72814;DHT22;60945;48.516;-2.768;2023-07-22T11:23:37;33.90;29.60
72814;DHT22;60945;48.516;-2.768;2023-07-22T11:26:03;35.00;28.10
72814;DHT22;60945;48.516;-2.768;2023-07-22T11:28:30;38.20;24.50
72814;DHT22;60945;48.516;-2.768;2023-07-22T11:30:55;36.70;26.10
72814;DHT22;60945;48.516;-2.768;2023-07-22T11:33:21;39.20;23.00
72814;DHT22;60945;48.516;-2.768;2023-07-22T11:35:47;35.50;26.30
72814;DHT22;60945;48.516;-2.768;2023-07-22T11:38:13;35.60;25.40
72814;DHT22;60945;48.516;-2.768;2023-07-22T11:40:39;35.30;26.40
72814;DHT22;60945;48.516;-2.768;2023-07-22T11:43:04;33.90;29.00
72814;DHT22;60945;48.516;-2.768;2023-07-22T11:45:31;36.50;25.60
72814;DHT22;60945;48.516;-2.768;2023-07-22T11:47:57;35.40;26.60
72814;DHT22;60945;48.516;-2.768;2023-07-22T11:50:35;32.80;29.00
72814;DHT22;60945;48.516;-2.768;2023-07-22T11:53:00;37.20;25.60
72814;DHT22;60945;48.516;-2.768;2023-07-22T11:55:26;39.00;23.80
72814;DHT22;60945;48.516;-2.768;2023-07-22T11:57:55;36.00;25.30
72814;DHT22;60945;48.516;-2.768;2023-07-22T12:00:21;30.90;31.20
72814;DHT22;60945;48.516;-2.768;2023-07-22T12:02:47;31.40;31.10
72814;DHT22;60945;48.516;-2.768;2023-07-22T12:05:20;31.00;31.50
72814;DHT22;60945;48.516;-2.768;2023-07-22T12:07:46;34.60;27.70
72814;DHT22;60945;48.516;-2.768;2023-07-22T12:10:12;33.70;28.30
72814;DHT22;60945;48.516;-2.768;2023-07-22T12:12:45;32.40;29.90
72814;DHT22;60945;48.516;-2.768;2023-07-22T12:15:21;32.80;28.20
72814;DHT22;60945;48.516;-2.768;2023-07-22T12:17:56;32.20;28.70
72814;DHT22;60945;48.516;-2.768;2023-07-22T12:20:26;35.60;26.60
72814;DHT22;60945;48.516;-2.768;2023-07-22T12:22:53;37.80;24.00
72814;DHT22;60945;48.516;-2.768;2023-07-22T12:25:19;36.40;24.60
72814;DHT22;60945;48.516;-2.768;2023-07-22T12:27:44;35.40;25.50
72814;DHT22;60945;48.516;-2.768;2023-07-22T12:30:11;35.60;25.80
72814;DHT22;60945;48.516;-2.768;2023-07-22T12:32:37;36.30;25.20
72814;DHT22;60945;48.516;-2.768;2023-07-22T12:35:03;34.50;26.40
72814;DHT22;60945;48.516;-2.768;2023-07-22T12:37:32;33.20;28.50
72814;DHT22;60945;48.516;-2.768;2023-07-22T12:39:57;35.50;26.70
72814;DHT22;60945;48.516;-2.768;2023-07-22T12:42:23;36.20;24.40
72814;DHT22;60945;48.516;-2.768;2023-07-22T12:44:48;29.80;31.40
72814;DHT22;60945;48.516;-2.768;2023-07-22T12:47:14;33.20;28.70
72814;DHT22;60945;48.516;-2.768;2023-07-22T12:49:40;37.10;25.40
72814;DHT22;60945;48.516;-2.768;2023-07-22T12:52:06;43.00;21.10
72814;DHT22;60945;48.516;-2.768;2023-07-22T12:54:38;42.70;20.20
72814;DHT22;60945;48.516;-2.768;2023-07-22T12:57:04;42.40;21.00
72814;DHT22;60945;48.516;-2.768;2023-07-22T12:59:30;43.50;20.30
72814;DHT22;60945;48.516;-2.768;2023-07-22T13:01:57;43.60;20.10
72814;DHT22;60945;48.516;-2.768;2023-07-22T13:04:24;42.70;20.60
72814;DHT22;60945;48.516;-2.768;2023-07-22T13:06:50;44.30;20.50
72814;DHT22;60945;48.516;-2.768;2023-07-22T13:09:17;46.90;18.20
72814;DHT22;60945;48.516;-2.768;2023-07-22T13:11:43;44.70;18.90
72814;DHT22;60945;48.516;-2.768;2023-07-22T13:14:09;44.10;19.90
72814;DHT22;60945;48.516;-2.768;2023-07-22T13:16:35;44.80;19.20
72814;DHT22;60945;48.516;-2.768;2023-07-22T13:19:00;46.00;18.60
72814;DHT22;60945;48.516;-2.768;2023-07-22T13:21:28;42.60;20.60
72814;DHT22;60945;48.516;-2.768;2023-07-22T13:23:54;40.30;21.60
72814;DHT22;60945;48.516;-2.768;2023-07-22T13:26:20;38.90;22.80
72814;DHT22;60945;48.516;-2.768;2023-07-22T13:28:45;37.70;24.80
72814;DHT22;60945;48.516;-2.768;2023-07-22T13:31:11;37.50;23.90
72814;DHT22;60945;48.516;-2.768;2023-07-22T13:33:37;35.90;26.10
72814;DHT22;60945;48.516;-2.768;2023-07-22T13:36:02;36.80;26.30
72814;DHT22;60945;48.516;-2.768;2023-07-22T13:38:28;42.60;21.50
72814;DHT22;60945;48.516;-2.768;2023-07-22T13:40:54;44.00;20.30
72814;DHT22;60945;48.516;-2.768;2023-07-22T13:43:20;40.90;20.90
72814;DHT22;60945;48.516;-2.768;2023-07-22T13:45:46;40.90;22.30
72814;DHT22;60945;48.516;-2.768;2023-07-22T13:48:11;39.30;23.10
72814;DHT22;60945;48.516;-2.768;2023-07-22T13:50:37;35.10;25.70
72814;DHT22;60945;48.516;-2.768;2023-07-22T13:53:03;37.70;25.10
72814;DHT22;60945;48.516;-2.768;2023-07-22T13:55:29;41.50;21.90
72814;DHT22;60945;48.516;-2.768;2023-07-22T13:57:54;39.30;22.70
72814;DHT22;60945;48.516;-2.768;2023-07-22T14:00:20;40.80;22.60
72814;DHT22;60945;48.516;-2.768;2023-07-22T14:02:46;39.70;23.10
72814;DHT22;60945;48.516;-2.768;2023-07-22T14:05:11;40.20;23.00
72814;DHT22;60945;48.516;-2.768;2023-07-22T14:07:38;42.00;21.50
72814;DHT22;60945;48.516;-2.768;2023-07-22T14:10:05;43.10;21.10
72814;DHT22;60945;48.516;-2.768;2023-07-22T14:12:30;45.20;19.30
72814;DHT22;60945;48.516;-2.768;2023-07-22T14:14:56;44.10;19.80
72814;DHT22;60945;48.516;-2.768;2023-07-22T14:17:22;43.00;20.80
72814;DHT22;60945;48.516;-2.768;2023-07-22T14:19:47;38.80;23.70
72814;DHT22;60945;48.516;-2.768;2023-07-22T14:22:13;40.70;23.00
72814;DHT22;60945;48.516;-2.768;2023-07-22T14:24:39;43.30;21.00
72814;DHT22;60945;48.516;-2.768;2023-07-22T14:27:05;42.20;20.80
72814;DHT22;60945;48.516;-2.768;2023-07-22T14:29:31;41.20;21.40
72814;DHT22;60945;48.516;-2.768;2023-07-22T14:31:56;35.90;25.70
72814;DHT22;60945;48.516;-2.768;2023-07-22T14:34:23;35.30;25.80
72814;DHT22;60945;48.516;-2.768;2023-07-22T14:36:49;35.40;25.80
72814;DHT22;60945;48.516;-2.768;2023-07-22T14:39:15;32.30;29.20
72814;DHT22;60945;48.516;-2.768;2023-07-22T14:41:42;32.80;28.50
72814;DHT22;60945;48.516;-2.768;2023-07-22T14:44:10;30.00;31.50
72814;DHT22;60945;48.516;-2.768;2023-07-22T14:46:36;30.40;32.40
72814;DHT22;60945;48.516;-2.768;2023-07-22T14:49:02;29.00;33.80
72814;DHT22;60945;48.516;-2.768;2023-07-22T14:51:28;28.40;35.30
72814;DHT22;60945;48.516;-2.768;2023-07-22T14:53:53;28.60;34.90
72814;DHT22;60945;48.516;-2.768;2023-07-22T14:56:19;28.80;34.10
72814;DHT22;60945;48.516;-2.768;2023-07-22T14:58:45;28.60;34.60
72814;DHT22;60945;48.516;-2.768;2023-07-22T15:01:11;28.10;35.60
72814;DHT22;60945;48.516;-2.768;2023-07-22T15:03:37;27.50;36.70
72814;DHT22;60945;48.516;-2.768;2023-07-22T15:06:04;27.90;36.00
72814;DHT22;60945;48.516;-2.768;2023-07-22T15:08:30;28.10;36.00
72814;DHT22;60945;48.516;-2.768;2023-07-22T15:10:56;28.50;35.70
72814;DHT22;60945;48.516;-2.768;2023-07-22T15:13:21;28.50;35.40
72814;DHT22;60945;48.516;-2.768;2023-07-22T15:15:47;28.30;35.60